createdAt,value
2023-07-24T00:00:16.064Z,20.67
2023-07-24T00:02:42.737Z,20.70
2023-07-24T00:05:09.827Z,20.67
2023-07-24T00:07:36.293Z,20.73
2023-07-24T00:10:03.675Z,20.81
2023-07-24T00:12:30.534Z,20.77
2023-07-24T00:14:57.177Z,20.83
2023-07-24T00:17:23.891Z,20.75
2023-07-24T00:19:50.756Z,20.70
2023-07-24T00:22:17.552Z,20.65
2023-07-24T00:24:44.346Z,20.64
2023-07-24T00:27:10.942Z,20.42
2023-07-24T00:29:37.638Z,20.34
2023-07-24T00:32:04.398Z,20.25
2023-07-24T00:34:31.177Z,20.25
2023-07-24T00:36:57.867Z,20.21
2023-07-24T00:39:24.698Z,20.12
2023-07-24T00:41:51.469Z,20.08
2023-07-24T00:44:19.761Z,20.12
2023-07-24T00:46:46.917Z,20.08
2023-07-24T00:49:14.188Z,20.09
2023-07-24T00:51:41.362Z,20.19
2023-07-24T00:54:08.544Z,20.12
2023-07-24T00:56:35.801Z,20.06
2023-07-24T00:59:02.638Z,20.02
2023-07-24T01:01:30.016Z,19.97
2023-07-24T01:03:58.535Z,19.98
2023-07-24T01:06:25.296Z,19.87
2023-07-24T01:08:51.878Z,19.81
2023-07-24T01:11:30.925Z,19.81
2023-07-24T01:14:03.685Z,19.81
2023-07-24T01:16:43.803Z,19.69
2023-07-24T01:19:32.702Z,19.69
2023-07-24T01:22:23.450Z,19.69
2023-07-24T01:24:59.780Z,19.64
2023-07-24T01:27:26.761Z,19.56
2023-07-24T01:29:53.688Z,19.57
2023-07-24T01:32:21.196Z,19.62
2023-07-24T01:34:48.703Z,19.57
2023-07-24T01:37:15.859Z,19.56
2023-07-24T01:39:44.859Z,19.60
2023-07-24T01:42:12.356Z,19.64
2023-07-24T01:44:39.069Z,19.66
2023-07-24T01:47:05.792Z,19.73
2023-07-24T01:49:32.577Z,19.77
2023-07-24T01:51:59.297Z,19.74
2023-07-24T01:54:26.092Z,19.76
2023-07-24T01:56:53.444Z,19.74
2023-07-24T01:59:20.174Z,19.77
2023-07-24T02:01:46.814Z,19.84
2023-07-24T02:04:13.452Z,19.93
2023-07-24T02:06:40.359Z,20.01
2023-07-24T02:09:07.034Z,20.01
2023-07-24T02:11:33.763Z,20.07
2023-07-24T02:14:00.845Z,20.16
2023-07-24T02:16:27.926Z,20.13
2023-07-24T02:18:54.995Z,20.05
2023-07-24T02:21:21.577Z,20.10
2023-07-24T02:23:48.276Z,20.04
2023-07-24T02:26:14.935Z,19.94
2023-07-24T02:28:41.701Z,19.91
2023-07-24T02:31:08.352Z,19.83
2023-07-24T02:33:34.984Z,19.73
2023-07-24T02:36:02.320Z,19.74
2023-07-24T02:38:29.257Z,19.84
2023-07-24T02:40:55.995Z,19.72
2023-07-24T02:43:22.722Z,19.74
2023-07-24T02:45:49.470Z,19.77
2023-07-24T02:48:16.096Z,19.74
2023-07-24T02:50:42.738Z,19.71
2023-07-24T02:53:09.499Z,19.80
2023-07-24T02:55:36.273Z,19.84
2023-07-24T02:58:03.216Z,19.85
2023-07-24T03:00:29.882Z,19.86
2023-07-24T03:02:56.724Z,19.85
2023-07-24T03:05:23.568Z,19.83
2023-07-24T03:07:50.252Z,19.80
2023-07-24T03:10:17.218Z,19.72
2023-07-24T03:12:43.903Z,19.75
2023-07-24T03:15:11.040Z,19.81
2023-07-24T03:17:37.724Z,19.74
2023-07-24T03:20:18.840Z,19.68
2023-07-24T03:22:46.365Z,19.71
2023-07-24T03:25:13.098Z,19.62
2023-07-24T03:27:39.902Z,19.49
2023-07-24T03:30:07.415Z,19.44
2023-07-24T03:32:34.224Z,19.38
2023-07-24T03:35:00.873Z,19.38
2023-07-24T03:37:27.608Z,19.36
2023-07-24T03:39:54.551Z,19.35
2023-07-24T03:42:28.685Z,19.24
2023-07-24T03:44:55.767Z,19.19
2023-07-24T03:47:22.768Z,19.20
2023-07-24T03:49:49.699Z,19.26
2023-07-24T03:52:16.655Z,19.31
2023-07-24T03:54:43.536Z,19.32
2023-07-24T03:57:10.457Z,19.30
2023-07-24T03:59:37.446Z,19.30
2023-07-24T04:02:04.437Z,19.36
2023-07-24T04:04:31.043Z,19.53
2023-07-24T04:06:57.734Z,19.50
2023-07-24T04:09:24.456Z,19.65
2023-07-24T04:11:51.065Z,19.61
2023-07-24T04:14:17.756Z,19.61
2023-07-24T04:16:44.677Z,19.60
2023-07-24T04:19:11.531Z,19.53
2023-07-24T04:21:38.176Z,19.70
2023-07-24T04:24:04.996Z,19.59
2023-07-24T04:26:31.812Z,19.55
2023-07-24T04:28:58.805Z,19.65
2023-07-24T04:31:25.542Z,19.72
2023-07-24T04:33:52.225Z,19.91
2023-07-24T04:36:18.980Z,19.92
2023-07-24T04:38:47.622Z,19.98
2023-07-24T04:41:14.468Z,20.08
2023-07-24T04:43:41.080Z,20.24
2023-07-24T04:46:07.881Z,20.27
2023-07-24T04:48:34.596Z,20.24
2023-07-24T04:51:01.398Z,20.12
2023-07-24T04:53:28.972Z,20.18
2023-07-24T04:55:55.770Z,20.16
2023-07-24T04:58:22.450Z,20.08
2023-07-24T05:00:49.096Z,20.07
2023-07-24T05:03:17.987Z,20.15
2023-07-24T05:05:46.565Z,20.32
2023-07-24T05:08:14.903Z,20.61
2023-07-24T05:10:41.678Z,20.80
2023-07-24T05:13:08.440Z,20.97
2023-07-24T05:15:35.191Z,21.23
2023-07-24T05:18:01.994Z,21.38
2023-07-24T05:20:28.711Z,21.46
2023-07-24T05:22:55.593Z,21.68
2023-07-24T05:25:22.400Z,21.74
2023-07-24T05:27:49.173Z,21.89
2023-07-24T05:30:16.945Z,21.99
2023-07-24T05:32:43.652Z,22.04
2023-07-24T05:35:10.363Z,22.07
2023-07-24T05:37:37.237Z,22.24
2023-07-24T05:40:04.346Z,22.37
2023-07-24T05:42:31.134Z,22.48
2023-07-24T05:44:57.910Z,22.60
2023-07-24T05:47:24.480Z,22.91
2023-07-24T05:49:51.210Z,23.32
2023-07-24T05:52:18.091Z,23.54
2023-07-24T05:54:44.663Z,23.57
2023-07-24T05:57:11.384Z,23.37
2023-07-24T05:59:38.066Z,23.26
2023-07-24T06:02:04.867Z,23.11
2023-07-24T06:04:31.727Z,23.08
2023-07-24T06:06:58.402Z,22.90
2023-07-24T06:09:25.104Z,23.15
2023-07-24T06:11:51.861Z,23.15
2023-07-24T06:14:18.693Z,23.00
2023-07-24T06:16:45.329Z,23.07
2023-07-24T06:19:11.974Z,23.08
2023-07-24T06:21:38.787Z,23.16
2023-07-24T06:24:05.640Z,23.30
2023-07-24T06:26:32.501Z,23.31
2023-07-24T06:28:59.254Z,23.32
2023-07-24T06:31:26.123Z,23.25
2023-07-24T06:33:52.784Z,23.21
2023-07-24T06:36:20.203Z,23.19
2023-07-24T06:38:48.670Z,23.29
2023-07-24T06:41:16.886Z,23.38
2023-07-24T06:43:43.963Z,23.66
2023-07-24T06:46:10.729Z,24.03
2023-07-24T06:48:37.503Z,24.30
2023-07-24T06:51:04.428Z,24.36
2023-07-24T06:53:31.196Z,24.41
2023-07-24T06:55:57.990Z,24.37
2023-07-24T06:58:24.665Z,24.56
2023-07-24T07:00:51.435Z,24.67
2023-07-24T07:03:18.345Z,24.82
2023-07-24T07:05:45.026Z,24.78
2023-07-24T07:08:11.645Z,24.85
2023-07-24T07:10:38.597Z,24.78
2023-07-24T07:13:05.300Z,24.95
2023-07-24T07:15:31.941Z,24.86
2023-07-24T07:17:58.702Z,24.93
2023-07-24T07:20:25.614Z,24.91
2023-07-24T07:22:52.558Z,24.71
2023-07-24T07:25:19.450Z,24.78
2023-07-24T07:27:46.327Z,24.98
2023-07-24T07:30:13.442Z,24.98
2023-07-24T07:32:40.125Z,25.02
2023-07-24T07:35:07.474Z,25.11
2023-07-24T07:37:34.143Z,25.12
2023-07-24T07:40:00.909Z,25.34
2023-07-24T07:42:27.661Z,25.47
2023-07-24T07:44:54.234Z,25.35
2023-07-24T07:47:20.939Z,25.70
2023-07-24T07:49:47.778Z,25.69
2023-07-24T07:52:18.304Z,25.78
2023-07-24T07:54:49.348Z,25.89
2023-07-24T07:57:16.874Z,26.04
2023-07-24T07:59:43.705Z,26.37
2023-07-24T08:02:10.373Z,26.31
2023-07-24T08:04:37.021Z,26.64
2023-07-24T08:07:04.000Z,26.54
2023-07-24T08:09:31.228Z,26.82
2023-07-24T08:11:58.031Z,27.54
2023-07-24T08:14:24.823Z,27.79
2023-07-24T08:16:52.612Z,27.99
2023-07-24T08:19:19.286Z,27.17
2023-07-24T08:21:47.664Z,26.96
2023-07-24T08:24:14.340Z,27.56
2023-07-24T08:26:41.093Z,27.03
2023-07-24T08:29:07.861Z,26.77
2023-07-24T08:31:34.761Z,26.79
2023-07-24T08:34:01.597Z,27.43
2023-07-24T08:36:28.694Z,28.19
2023-07-24T08:38:55.895Z,28.87
2023-07-24T08:41:22.691Z,28.71
2023-07-24T08:43:50.810Z,29.03
2023-07-24T08:46:18.158Z,29.63
2023-07-24T08:48:45.301Z,29.78
2023-07-24T08:51:20.226Z,30.47
2023-07-24T08:53:48.575Z,30.73
2023-07-24T08:56:15.861Z,30.41
2023-07-24T08:58:42.974Z,29.61
2023-07-24T09:01:10.131Z,28.55
2023-07-24T09:03:37.719Z,28.48
2023-07-24T09:06:10.706Z,28.09
2023-07-24T09:08:39.871Z,28.17
2023-07-24T09:11:08.282Z,28.38
2023-07-24T09:13:37.853Z,28.20
2023-07-24T09:16:05.062Z,28.48
2023-07-24T09:18:42.539Z,28.59
2023-07-24T09:21:09.892Z,28.97
2023-07-24T09:23:36.538Z,28.56
2023-07-24T09:26:08.268Z,28.59
2023-07-24T09:28:36.229Z,28.47
2023-07-24T09:31:05.928Z,28.28
2023-07-24T09:33:37.850Z,28.64
2023-07-24T09:36:06.292Z,28.49
2023-07-24T09:38:33.016Z,27.97
2023-07-24T09:41:01.783Z,28.05
2023-07-24T09:43:39.907Z,28.44
2023-07-24T09:46:10.368Z,28.96
2023-07-24T09:48:41.746Z,29.09
2023-07-24T09:51:14.813Z,29.50
2023-07-24T09:54:08.840Z,29.45
2023-07-24T09:56:48.286Z,29.59
2023-07-24T09:59:19.784Z,29.41
2023-07-24T10:01:48.678Z,29.20
2023-07-24T10:04:16.385Z,28.64
2023-07-24T10:06:44.529Z,28.88
2023-07-24T10:09:12.524Z,29.11
2023-07-24T10:11:39.223Z,28.81
2023-07-24T10:14:06.075Z,29.24
2023-07-24T10:16:34.001Z,29.03
2023-07-24T10:19:00.654Z,29.12
2023-07-24T10:21:29.943Z,29.28
2023-07-24T10:24:01.304Z,29.88
2023-07-24T10:26:28.509Z,29.91
2023-07-24T10:28:55.373Z,29.45
2023-07-24T10:31:22.024Z,29.79
2023-07-24T10:33:49.988Z,30.05
2023-07-24T10:36:23.695Z,30.62
2023-07-24T10:38:55.744Z,30.82
2023-07-24T10:41:22.556Z,31.00
2023-07-24T10:43:53.870Z,30.85
2023-07-24T10:46:21.759Z,30.94
2023-07-24T10:48:50.659Z,30.95
2023-07-24T10:51:17.535Z,31.18
2023-07-24T10:53:49.784Z,30.90
2023-07-24T10:56:17.733Z,31.39
2023-07-24T10:58:44.687Z,30.75
2023-07-24T11:01:26.766Z,30.96
2023-07-24T11:03:53.475Z,30.46
2023-07-24T11:06:21.282Z,30.09
2023-07-24T11:08:57.653Z,29.95
2023-07-24T11:11:31.994Z,29.54
2023-07-24T11:13:59.290Z,30.07
2023-07-24T11:16:26.066Z,29.76
2023-07-24T11:18:56.742Z,29.70
2023-07-24T11:21:26.634Z,30.41
2023-07-24T11:23:55.088Z,30.01
2023-07-24T11:26:23.841Z,30.11
2023-07-24T11:28:52.032Z,30.86
2023-07-24T11:31:22.198Z,31.02
2023-07-24T11:33:51.187Z,30.77
2023-07-24T11:36:18.018Z,30.75
2023-07-24T11:38:47.157Z,30.71
2023-07-24T11:41:14.260Z,30.80
2023-07-24T11:43:48.681Z,30.24
2023-07-24T11:46:26.342Z,29.79
2023-07-24T11:48:54.950Z,30.11
2023-07-24T11:51:21.985Z,30.20
2023-07-24T11:53:48.904Z,30.35
2023-07-24T11:56:17.269Z,29.83
2023-07-24T11:58:44.058Z,29.73
2023-07-24T12:01:13.800Z,29.57
2023-07-24T12:03:42.010Z,29.02
2023-07-24T12:06:16.810Z,29.07
2023-07-24T12:08:43.634Z,28.75
2023-07-24T12:11:22.494Z,28.62
2023-07-24T12:13:51.518Z,28.49
2023-07-24T12:16:18.300Z,28.47
2023-07-24T12:18:44.978Z,28.60
2023-07-24T12:21:11.672Z,28.25
2023-07-24T12:23:38.463Z,28.75
2023-07-24T12:26:05.852Z,29.09
2023-07-24T12:28:32.873Z,29.35
2023-07-24T12:30:59.819Z,28.96
2023-07-24T12:33:26.552Z,29.24
2023-07-24T12:35:54.089Z,29.72
2023-07-24T12:38:20.909Z,29.95
2023-07-24T12:40:47.662Z,29.52
2023-07-24T12:43:16.561Z,28.99
2023-07-24T12:45:43.190Z,29.17
2023-07-24T12:48:09.960Z,29.01
2023-07-24T12:50:36.727Z,28.57
2023-07-24T12:53:04.675Z,28.93
2023-07-24T12:55:32.794Z,28.92
2023-07-24T12:57:59.446Z,28.83
2023-07-24T13:00:26.122Z,28.27
2023-07-24T13:02:53.103Z,28.57
2023-07-24T13:05:19.887Z,28.56
2023-07-24T13:07:47.627Z,28.57
2023-07-24T13:10:14.256Z,28.89
2023-07-24T13:12:40.870Z,29.42
2023-07-24T13:15:07.932Z,29.64
2023-07-24T13:17:34.655Z,29.87
2023-07-24T13:20:01.646Z,29.79
2023-07-24T13:22:28.412Z,29.83
2023-07-24T13:24:55.248Z,29.36
2023-07-24T13:27:22.218Z,29.24
2023-07-24T13:29:48.927Z,29.09
2023-07-24T13:32:17.279Z,29.06
2023-07-24T13:34:44.115Z,28.88
2023-07-24T13:37:10.825Z,28.67
2023-07-24T13:39:37.482Z,28.59
2023-07-24T13:42:04.538Z,28.76
2023-07-24T13:44:31.275Z,29.01
2023-07-24T13:46:58.146Z,29.15
2023-07-24T13:49:24.732Z,29.45
2023-07-24T13:51:51.424Z,29.54
2023-07-24T13:54:18.155Z,29.57
2023-07-24T13:56:44.969Z,29.75
2023-07-24T13:59:11.753Z,29.78
2023-07-24T14:01:38.500Z,30.01
2023-07-24T14:04:05.462Z,29.98
2023-07-24T14:06:32.402Z,29.59
2023-07-24T14:08:59.127Z,29.03
2023-07-24T14:11:28.170Z,29.04
2023-07-24T14:13:54.933Z,28.81
2023-07-24T14:16:21.502Z,28.87
2023-07-24T14:18:48.145Z,28.83
2023-07-24T14:21:14.853Z,28.79
2023-07-24T14:23:41.714Z,28.33
2023-07-24T14:26:08.394Z,27.87
2023-07-24T14:28:34.973Z,28.23
2023-07-24T14:31:01.812Z,28.26
2023-07-24T14:33:28.582Z,28.16
2023-07-24T14:35:56.155Z,28.07
2023-07-24T14:38:22.960Z,28.52
2023-07-24T14:40:49.609Z,28.97
2023-07-24T14:43:16.463Z,29.06
2023-07-24T14:45:43.308Z,28.75
2023-07-24T14:48:10.531Z,28.64
2023-07-24T14:50:37.427Z,28.72
2023-07-24T14:53:04.288Z,28.41
2023-07-24T14:55:31.152Z,28.44
2023-07-24T14:57:57.867Z,28.58
2023-07-24T15:00:24.636Z,28.24
2023-07-24T15:02:51.471Z,28.32
2023-07-24T15:05:18.121Z,28.51
2023-07-24T15:07:44.833Z,28.10
2023-07-24T15:10:12.364Z,28.15
2023-07-24T15:12:39.092Z,28.43
2023-07-24T15:15:06.687Z,28.43
2023-07-24T15:17:33.497Z,28.26
2023-07-24T15:20:00.142Z,28.12
2023-07-24T15:22:27.090Z,27.96
2023-07-24T15:24:53.869Z,28.14
2023-07-24T15:27:20.703Z,28.02
2023-07-24T15:29:48.284Z,27.96
2023-07-24T15:32:15.099Z,28.00
2023-07-24T15:34:41.684Z,27.74
2023-07-24T15:37:08.326Z,27.47
2023-07-24T15:39:35.009Z,27.49
2023-07-24T15:42:01.805Z,27.58
2023-07-24T15:44:28.486Z,27.52
2023-07-24T15:46:55.231Z,27.44
2023-07-24T15:49:21.989Z,27.47
2023-07-24T15:51:49.919Z,27.32
2023-07-24T15:54:16.612Z,27.21
2023-07-24T15:56:43.250Z,27.19
2023-07-24T15:59:12.564Z,27.10
2023-07-24T16:01:39.310Z,27.00
2023-07-24T16:04:06.188Z,27.00
2023-07-24T16:06:32.959Z,27.00
2023-07-24T16:09:01.517Z,26.83
2023-07-24T16:11:28.964Z,26.05
2023-07-24T16:13:56.174Z,24.58
2023-07-24T16:16:22.833Z,22.67
2023-07-24T16:19:19.724Z,22.14
2023-07-24T16:21:48.370Z,21.77
2023-07-24T16:24:18.332Z,21.04
2023-07-24T16:26:46.643Z,20.47
2023-07-24T16:29:13.467Z,20.38
2023-07-24T16:31:40.836Z,20.10
2023-07-24T16:34:08.084Z,19.66
2023-07-24T16:36:36.417Z,19.74
2023-07-24T16:39:06.234Z,19.37
2023-07-24T16:41:33.613Z,19.21
2023-07-24T16:44:02.651Z,18.97
2023-07-24T16:46:30.111Z,18.83
2023-07-24T16:48:56.704Z,18.74
2023-07-24T16:51:23.355Z,18.70
2023-07-24T16:53:50.187Z,18.19
2023-07-24T16:56:16.952Z,18.10
2023-07-24T16:58:43.741Z,18.29
2023-07-24T17:01:10.553Z,18.19
2023-07-24T17:03:37.366Z,18.04
2023-07-24T17:06:04.257Z,18.17
2023-07-24T17:08:31.031Z,18.17
2023-07-24T17:10:57.833Z,18.24
2023-07-24T17:13:24.632Z,18.38
2023-07-24T17:15:51.278Z,18.55
2023-07-24T17:18:18.896Z,18.72
2023-07-24T17:20:45.782Z,18.83
2023-07-24T17:23:12.590Z,18.75
2023-07-24T17:25:41.015Z,18.82
2023-07-24T17:28:07.908Z,18.66
2023-07-24T17:30:34.692Z,18.54
2023-07-24T17:33:03.088Z,18.56
2023-07-24T17:35:29.950Z,18.61
2023-07-24T17:37:56.551Z,18.65
2023-07-24T17:40:23.332Z,18.70
2023-07-24T17:42:50.531Z,18.82
2023-07-24T17:45:17.298Z,18.87
2023-07-24T17:47:44.028Z,18.87
2023-07-24T17:50:11.347Z,18.79
2023-07-24T17:52:38.311Z,18.74
2023-07-24T17:55:06.562Z,18.77
2023-07-24T17:57:34.302Z,18.90
2023-07-24T18:00:00.995Z,18.87
2023-07-24T18:02:27.593Z,18.82
2023-07-24T18:04:54.424Z,18.79
2023-07-24T18:07:21.101Z,18.90
2023-07-24T18:09:47.881Z,18.94
2023-07-24T18:12:15.063Z,18.86
2023-07-24T18:14:41.876Z,18.80
2023-07-24T18:17:08.657Z,18.69
2023-07-24T18:19:35.352Z,18.79
2023-07-24T18:22:02.088Z,18.84
2023-07-24T18:24:28.877Z,18.73
2023-07-24T18:26:55.702Z,18.61
2023-07-24T18:29:22.493Z,18.66
2023-07-24T18:31:49.302Z,18.55
2023-07-24T18:34:16.634Z,18.51
2023-07-24T18:36:43.414Z,18.51
2023-07-24T18:39:10.206Z,18.45
2023-07-24T18:41:37.063Z,18.43
2023-07-24T18:44:03.843Z,18.43
2023-07-24T18:46:30.611Z,18.46
2023-07-24T18:48:57.354Z,18.37
2023-07-24T18:51:24.218Z,18.42
2023-07-24T18:53:52.934Z,18.46
2023-07-24T18:56:19.796Z,18.42
2023-07-24T18:58:46.792Z,18.36
2023-07-24T19:01:13.538Z,18.23
2023-07-24T19:03:40.373Z,18.11
2023-07-24T19:06:08.292Z,18.05
2023-07-24T19:08:35.177Z,18.00
2023-07-24T19:11:02.405Z,17.95
2023-07-24T19:13:33.863Z,17.95
2023-07-24T19:16:01.713Z,17.88
2023-07-24T19:18:28.348Z,17.69
2023-07-24T19:20:55.004Z,17.58
2023-07-24T19:23:21.715Z,17.69
2023-07-24T19:25:48.563Z,17.69
2023-07-24T19:28:15.230Z,17.62
2023-07-24T19:30:41.890Z,17.49
2023-07-24T19:33:08.539Z,17.35
2023-07-24T19:35:35.207Z,17.42
2023-07-24T19:38:02.121Z,17.41
2023-07-24T19:40:28.730Z,17.43
2023-07-24T19:42:56.893Z,17.34
2023-07-24T19:45:24.026Z,17.36
2023-07-24T19:47:50.823Z,17.34
2023-07-24T19:50:17.684Z,17.32
2023-07-24T19:52:48.839Z,17.27
2023-07-24T19:55:16.801Z,17.26
2023-07-24T19:57:45.293Z,17.16
2023-07-24T20:00:12.661Z,17.15
2023-07-24T20:02:39.562Z,17.20
2023-07-24T20:05:06.800Z,17.12
2023-07-24T20:07:33.454Z,17.11
2023-07-24T20:10:01.234Z,17.04
2023-07-24T20:12:28.023Z,16.94
2023-07-24T20:14:54.911Z,16.97
2023-07-24T20:17:21.680Z,16.80
2023-07-24T20:19:48.255Z,16.72
2023-07-24T20:22:15.023Z,16.86
2023-07-24T20:24:41.827Z,16.86
2023-07-24T20:27:08.628Z,16.79
2023-07-24T20:29:36.630Z,16.87
2023-07-24T20:32:03.617Z,16.79
2023-07-24T20:34:30.234Z,16.75
2023-07-24T20:36:56.937Z,16.73
2023-07-24T20:39:23.717Z,16.76
2023-07-24T20:41:50.285Z,16.71
2023-07-24T20:44:17.085Z,16.78
2023-07-24T20:46:43.872Z,16.64
2023-07-24T20:49:10.581Z,16.75
2023-07-24T20:51:37.178Z,16.69
2023-07-24T20:54:04.140Z,16.69
2023-07-24T20:56:30.831Z,16.71
2023-07-24T20:58:57.473Z,16.68
2023-07-24T21:01:24.533Z,16.67
2023-07-24T21:03:52.935Z,16.56
2023-07-24T21:06:19.677Z,16.67
2023-07-24T21:08:46.334Z,16.67
2023-07-24T21:11:12.980Z,16.59
2023-07-24T21:13:39.596Z,16.67
2023-07-24T21:16:06.292Z,16.68
2023-07-24T21:18:33.811Z,16.76
2023-07-24T21:21:01.930Z,16.73
2023-07-24T21:23:28.880Z,16.71
2023-07-24T21:25:56.647Z,16.59
2023-07-24T21:28:24.365Z,16.56
2023-07-24T21:30:51.604Z,16.62
2023-07-24T21:33:18.949Z,16.60
2023-07-24T21:35:45.572Z,16.50
2023-07-24T21:38:13.323Z,16.52
2023-07-24T21:40:41.326Z,16.48
2023-07-24T21:43:08.726Z,16.46
2023-07-24T21:45:35.776Z,16.50
2023-07-24T21:48:06.022Z,16.58
2023-07-24T21:50:32.943Z,16.54
2023-07-24T21:52:59.743Z,16.49
2023-07-24T21:55:26.348Z,16.52
2023-07-24T21:57:53.086Z,16.53
2023-07-24T22:00:21.209Z,16.51
2023-07-24T22:02:47.945Z,16.49
2023-07-24T22:05:14.650Z,16.57
2023-07-24T22:07:41.305Z,16.70
2023-07-24T22:10:08.637Z,16.68
2023-07-24T22:12:35.449Z,16.73
2023-07-24T22:15:02.200Z,16.64
2023-07-24T22:17:30.200Z,16.59
2023-07-24T22:19:57.273Z,16.58
2023-07-24T22:22:24.283Z,16.59
2023-07-24T22:24:50.955Z,16.59
2023-07-24T22:27:17.864Z,16.67
2023-07-24T22:29:44.786Z,16.66
2023-07-24T22:32:11.747Z,16.65
2023-07-24T22:34:38.656Z,16.70
2023-07-24T22:37:07.006Z,16.81
2023-07-24T22:39:34.735Z,16.82
2023-07-24T22:42:02.479Z,16.76
2023-07-24T22:44:29.658Z,16.73
2023-07-24T22:46:56.579Z,16.79
2023-07-24T22:49:23.791Z,16.69
2023-07-24T22:51:50.469Z,16.70
2023-07-24T22:54:17.346Z,16.69
2023-07-24T22:56:44.537Z,16.48
2023-07-24T22:59:29.668Z,16.45
2023-07-24T23:01:58.424Z,16.43
2023-07-24T23:04:26.731Z,16.43
2023-07-24T23:06:55.777Z,16.42
2023-07-24T23:09:22.960Z,16.57
2023-07-24T23:11:49.749Z,16.44
2023-07-24T23:14:16.400Z,16.40
2023-07-24T23:16:43.163Z,16.46
2023-07-24T23:19:10.407Z,16.49
2023-07-24T23:21:37.208Z,16.39
2023-07-24T23:24:04.312Z,16.39
2023-07-24T23:26:30.885Z,16.45
2023-07-24T23:28:58.821Z,16.38
2023-07-24T23:31:25.765Z,16.39
2023-07-24T23:33:52.356Z,16.34
2023-07-24T23:36:19.108Z,16.29
2023-07-24T23:38:45.873Z,16.25
2023-07-24T23:41:12.595Z,16.18
2023-07-24T23:43:39.367Z,16.07
2023-07-24T23:46:11.972Z,15.93
2023-07-24T23:48:39.129Z,16.00
2023-07-24T23:51:05.839Z,15.93
2023-07-24T23:53:32.573Z,15.87
2023-07-24T23:55:59.379Z,15.90
2023-07-24T23:58:26.101Z,15.84
